sensor_id;sensor_type;location;lat;lon;timestamp;temperature;humidity
14993;DHT22;7592;51.088;13.732;2022-09-12T00:02:53;16.00;99.90
14993;DHT22;7592;51.088;13.732;2022-09-12T00:07:46;16.00;99.90
14993;DHT22;7592;51.088;13.732;2022-09-12T00:12:39;16.00;99.90
14993;DHT22;7592;51.088;13.732;2022-09-12T00:17:38;16.00;99.90
14993;DHT22;7592;51.088;13.732;2022-09-12T00:22:50;16.00;99.90
14993;DHT22;7592;51.088;13.732;2022-09-12T00:28:15;15.90;99.90
14993;DHT22;7592;51.088;13.732;2022-09-12T00:33:10;15.90;99.90
14993;DHT22;7592;51.088;13.732;2022-09-12T00:38:11;15.90;99.90
14993;DHT22;7592;51.088;13.732;2022-09-12T00:48:38;15.80;99.90
14993;DHT22;7592;51.088;13.732;2022-09-12T00:53:51;15.70;99.90
14993;DHT22;7592;51.088;13.732;2022-09-12T00:59:26;15.60;99.90
14993;DHT22;7592;51.088;13.732;2022-09-12T01:04:26;15.30;99.90
14993;DHT22;7592;51.088;13.732;2022-09-12T01:09:24;15.20;99.90
14993;DHT22;7592;51.088;13.732;2022-09-12T01:14:20;15.00;99.90
14993;DHT22;7592;51.088;13.732;2022-09-12T01:35:45;14.40;99.90
14993;DHT22;7592;51.088;13.732;2022-09-12T01:41:09;14.40;99.90
14993;DHT22;7592;51.088;13.732;2022-09-12T01:51:50;14.70;99.90
14993;DHT22;7592;51.088;13.732;2022-09-12T01:56:47;14.80;99.90
14993;DHT22;7592;51.088;13.732;2022-09-12T02:01:55;14.90;99.90
14993;DHT22;7592;51.088;13.732;2022-09-12T02:07:12;14.90;99.90
14993;DHT22;7592;51.088;13.732;2022-09-12T02:12:11;14.90;99.90
14993;DHT22;7592;51.088;13.732;2022-09-12T02:17:11;14.90;99.90
14993;DHT22;7592;51.088;13.732;2022-09-12T02:22:05;14.90;99.90
14993;DHT22;7592;51.088;13.732;2022-09-12T02:32:57;14.90;99.90
14993;DHT22;7592;51.088;13.732;2022-09-12T02:38:10;14.90;99.90
14993;DHT22;7592;51.088;13.732;2022-09-12T02:43:12;14.90;99.90
14993;DHT22;7592;51.088;13.732;2022-09-12T02:48:18;14.90;99.90
14993;DHT22;7592;51.088;13.732;2022-09-12T02:53:15;14.80;99.90
14993;DHT22;7592;51.088;13.732;2022-09-12T02:58:14;14.80;99.90
14993;DHT22;7592;51.088;13.732;2022-09-12T03:08:40;14.80;99.90
14993;DHT22;7592;51.088;13.732;2022-09-12T03:26:11;14.80;99.90
14993;DHT22;7592;51.088;13.732;2022-09-12T03:31:16;14.70;99.90
14993;DHT22;7592;51.088;13.732;2022-09-12T03:36:22;14.70;99.90
14993;DHT22;7592;51.088;13.732;2022-09-12T03:41:19;14.80;99.90
14993;DHT22;7592;51.088;13.732;2022-09-12T03:46:12;14.80;99.90
14993;DHT22;7592;51.088;13.732;2022-09-12T03:51:10;14.80;99.90
14993;DHT22;7592;51.088;13.732;2022-09-12T03:56:09;14.80;99.90
14993;DHT22;7592;51.088;13.732;2022-09-12T04:01:21;14.90;99.90
14993;DHT22;7592;51.088;13.732;2022-09-12T04:06:42;14.90;99.90
14993;DHT22;7592;51.088;13.732;2022-09-12T04:11:35;14.70;99.90
14993;DHT22;7592;51.088;13.732;2022-09-12T04:16:29;14.70;99.90
14993;DHT22;7592;51.088;13.732;2022-09-12T04:21:28;14.60;99.90
14993;DHT22;7592;51.088;13.732;2022-09-12T04:26:36;14.70;99.90
14993;DHT22;7592;51.088;13.732;2022-09-12T04:31:40;14.60;99.90
14993;DHT22;7592;51.088;13.732;2022-09-12T04:36:37;14.60;99.90
14993;DHT22;7592;51.088;13.732;2022-09-12T04:48:18;14.60;99.90
14993;DHT22;7592;51.088;13.732;2022-09-12T04:53:11;14.60;99.90
14993;DHT22;7592;51.088;13.732;2022-09-12T04:58:04;14.70;99.90
14993;DHT22;7592;51.088;13.732;2022-09-12T05:17:29;15.00;99.90
14993;DHT22;7592;51.088;13.732;2022-09-12T05:22:21;15.10;99.90
14993;DHT22;7592;51.088;13.732;2022-09-12T05:27:31;15.20;99.90
14993;DHT22;7592;51.088;13.732;2022-09-12T05:32:33;15.30;99.90
14993;DHT22;7592;51.088;13.732;2022-09-12T05:37:28;15.50;99.90
14993;DHT22;7592;51.088;13.732;2022-09-12T05:42:28;15.60;99.90
14993;DHT22;7592;51.088;13.732;2022-09-12T05:47:34;15.90;99.90
14993;DHT22;7592;51.088;13.732;2022-09-12T05:52:39;16.10;99.90
14993;DHT22;7592;51.088;13.732;2022-09-12T05:57:45;16.20;99.90
14993;DHT22;7592;51.088;13.732;2022-09-12T06:03:29;16.20;99.90
14993;DHT22;7592;51.088;13.732;2022-09-12T06:14:09;16.60;99.90
14993;DHT22;7592;51.088;13.732;2022-09-12T06:19:20;17.00;99.90
14993;DHT22;7592;51.088;13.732;2022-09-12T06:24:20;17.20;99.90
14993;DHT22;7592;51.088;13.732;2022-09-12T06:29:14;17.60;99.90
14993;DHT22;7592;51.088;13.732;2022-09-12T06:34:10;18.00;99.90
14993;DHT22;7592;51.088;13.732;2022-09-12T06:39:17;18.40;99.90
14993;DHT22;7592;51.088;13.732;2022-09-12T06:44:42;18.80;99.90
14993;DHT22;7592;51.088;13.732;2022-09-12T06:57:30;19.70;99.90
14993;DHT22;7592;51.088;13.732;2022-09-12T07:03:16;19.80;99.90
14993;DHT22;7592;51.088;13.732;2022-09-12T07:14:14;20.00;99.90
14993;DHT22;7592;51.088;13.732;2022-09-12T07:19:07;20.20;99.90
14993;DHT22;7592;51.088;13.732;2022-09-12T07:24:00;20.10;99.90
14993;DHT22;7592;51.088;13.732;2022-09-12T07:28:53;20.20;99.90
14993;DHT22;7592;51.088;13.732;2022-09-12T07:34:38;20.50;99.90
14993;DHT22;7592;51.088;13.732;2022-09-12T07:39:30;20.40;99.90
14993;DHT22;7592;51.088;13.732;2022-09-12T07:44:24;20.50;99.90
14993;DHT22;7592;51.088;13.732;2022-09-12T07:49:16;20.50;99.90
14993;DHT22;7592;51.088;13.732;2022-09-12T07:54:09;21.00;99.90
14993;DHT22;7592;51.088;13.732;2022-09-12T07:59:02;21.70;99.90
14993;DHT22;7592;51.088;13.732;2022-09-12T08:03:57;21.60;99.90
14993;DHT22;7592;51.088;13.732;2022-09-12T08:08:50;21.10;99.90
14993;DHT22;7592;51.088;13.732;2022-09-12T08:13:44;20.70;99.90
14993;DHT22;7592;51.088;13.732;2022-09-12T08:18:37;20.70;99.90
14993;DHT22;7592;51.088;13.732;2022-09-12T08:23:30;22.10;99.90
14993;DHT22;7592;51.088;13.732;2022-09-12T08:28:24;22.40;99.90
14993;DHT22;7592;51.088;13.732;2022-09-12T08:33:16;23.50;99.90
14993;DHT22;7592;51.088;13.732;2022-09-12T08:38:08;25.20;99.90
14993;DHT22;7592;51.088;13.732;2022-09-12T08:43:09;25.50;99.90
14993;DHT22;7592;51.088;13.732;2022-09-12T08:48:06;24.30;99.90
14993;DHT22;7592;51.088;13.732;2022-09-12T08:53:13;23.40;99.90
14993;DHT22;7592;51.088;13.732;2022-09-12T08:58:14;22.80;99.90
14993;DHT22;7592;51.088;13.732;2022-09-12T09:03:26;22.80;99.90
14993;DHT22;7592;51.088;13.732;2022-09-12T09:14:13;22.70;99.90
14993;DHT22;7592;51.088;13.732;2022-09-12T09:19:37;23.80;99.90
14993;DHT22;7592;51.088;13.732;2022-09-12T09:24:46;24.30;99.90
14993;DHT22;7592;51.088;13.732;2022-09-12T09:29:43;25.00;99.90
14993;DHT22;7592;51.088;13.732;2022-09-12T09:34:38;25.00;99.90
14993;DHT22;7592;51.088;13.732;2022-09-12T09:44:42;31.10;98.20
14993;DHT22;7592;51.088;13.732;2022-09-12T09:49:34;31.20;91.90
14993;DHT22;7592;51.088;13.732;2022-09-12T09:54:35;30.60;90.20
14993;DHT22;7592;51.088;13.732;2022-09-12T09:59:31;28.50;92.50
14993;DHT22;7592;51.088;13.732;2022-09-12T10:04:26;28.00;93.60
14993;DHT22;7592;51.088;13.732;2022-09-12T10:09:25;28.80;93.40
14993;DHT22;7592;51.088;13.732;2022-09-12T10:14:39;32.00;85.70
14993;DHT22;7592;51.088;13.732;2022-09-12T10:19:38;31.60;81.60
14993;DHT22;7592;51.088;13.732;2022-09-12T10:24:41;29.10;87.10
14993;DHT22;7592;51.088;13.732;2022-09-12T10:30:04;27.30;92.20
14993;DHT22;7592;51.088;13.732;2022-09-12T10:35:52;26.70;93.50
14993;DHT22;7592;51.088;13.732;2022-09-12T10:40:45;25.80;95.30
14993;DHT22;7592;51.088;13.732;2022-09-12T10:46:09;25.40;96.10
14993;DHT22;7592;51.088;13.732;2022-09-12T10:56:18;30.60;86.40
14993;DHT22;7592;51.088;13.732;2022-09-12T11:12:34;35.70;64.70
14993;DHT22;7592;51.088;13.732;2022-09-12T11:28:05;35.90;56.90
14993;DHT22;7592;51.088;13.732;2022-09-12T11:53:40;25.20;81.70
14993;DHT22;7592;51.088;13.732;2022-09-12T11:58:35;24.60;87.40
14993;DHT22;7592;51.088;13.732;2022-09-12T12:03:41;24.20;90.50
14993;DHT22;7592;51.088;13.732;2022-09-12T12:08:40;24.20;90.80
14993;DHT22;7592;51.088;13.732;2022-09-12T12:13:50;24.10;90.90
14993;DHT22;7592;51.088;13.732;2022-09-12T12:18:44;24.60;91.90
14993;DHT22;7592;51.088;13.732;2022-09-12T12:23:38;25.20;90.70
14993;DHT22;7592;51.088;13.732;2022-09-12T12:38:38;24.70;91.70
14993;DHT22;7592;51.088;13.732;2022-09-12T12:43:31;24.80;91.90
14993;DHT22;7592;51.088;13.732;2022-09-12T12:48:28;24.70;91.50
14993;DHT22;7592;51.088;13.732;2022-09-12T12:53:24;24.60;91.80
14993;DHT22;7592;51.088;13.732;2022-09-12T12:58:31;24.80;92.20
14993;DHT22;7592;51.088;13.732;2022-09-12T13:03:29;24.60;92.10
14993;DHT22;7592;51.088;13.732;2022-09-12T13:08:32;24.30;92.10
14993;DHT22;7592;51.088;13.732;2022-09-12T13:18:48;23.80;92.10
14993;DHT22;7592;51.088;13.732;2022-09-12T13:23:41;23.90;93.00
14993;DHT22;7592;51.088;13.732;2022-09-12T13:28:33;23.60;94.00
14993;DHT22;7592;51.088;13.732;2022-09-12T13:33:30;23.30;93.80
14993;DHT22;7592;51.088;13.732;2022-09-12T13:43:52;23.40;95.20
14993;DHT22;7592;51.088;13.732;2022-09-12T13:48:44;23.30;94.30
14993;DHT22;7592;51.088;13.732;2022-09-12T13:53:43;23.30;95.40
14993;DHT22;7592;51.088;13.732;2022-09-12T13:58:56;23.00;95.60
14993;DHT22;7592;51.088;13.732;2022-09-12T14:03:54;23.10;96.10
14993;DHT22;7592;51.088;13.732;2022-09-12T14:09:20;23.40;95.10
14993;DHT22;7592;51.088;13.732;2022-09-12T14:14:32;23.30;95.70
14993;DHT22;7592;51.088;13.732;2022-09-12T14:19:25;23.20;94.30
14993;DHT22;7592;51.088;13.732;2022-09-12T14:24:18;23.00;95.40
14993;DHT22;7592;51.088;13.732;2022-09-12T14:29:15;22.90;95.70
14993;DHT22;7592;51.088;13.732;2022-09-12T14:34:13;22.90;96.10
14993;DHT22;7592;51.088;13.732;2022-09-12T14:39:19;22.80;95.40
14993;DHT22;7592;51.088;13.732;2022-09-12T14:44:23;22.90;96.10
14993;DHT22;7592;51.088;13.732;2022-09-12T14:49:33;22.90;95.50
14993;DHT22;7592;51.088;13.732;2022-09-12T14:59:37;22.40;97.80
14993;DHT22;7592;51.088;13.732;2022-09-12T15:04:39;22.40;98.50
14993;DHT22;7592;51.088;13.732;2022-09-12T15:09:32;22.40;98.70
14993;DHT22;7592;51.088;13.732;2022-09-12T17:16:48;19.20;99.90
14993;DHT22;7592;51.088;13.732;2022-09-12T17:21:44;19.10;99.90
14993;DHT22;7592;51.088;13.732;2022-09-12T17:26:37;18.90;99.90
14993;DHT22;7592;51.088;13.732;2022-09-12T17:31:32;18.70;99.90
14993;DHT22;7592;51.088;13.732;2022-09-12T17:36:24;18.50;99.90
14993;DHT22;7592;51.088;13.732;2022-09-12T17:41:19;18.40;99.90
14993;DHT22;7592;51.088;13.732;2022-09-12T17:46:12;18.40;99.90
14993;DHT22;7592;51.088;13.732;2022-09-12T17:51:12;18.30;99.90
14993;DHT22;7592;51.088;13.732;2022-09-12T17:56:05;18.10;99.90
14993;DHT22;7592;51.088;13.732;2022-09-12T18:01:16;18.10;99.90
14993;DHT22;7592;51.088;13.732;2022-09-12T18:06:28;17.90;99.90
14993;DHT22;7592;51.088;13.732;2022-09-12T18:11:24;17.80;99.90
14993;DHT22;7592;51.088;13.732;2022-09-12T18:16:17;17.70;99.90
14993;DHT22;7592;51.088;13.732;2022-09-12T18:21:11;17.80;99.90
14993;DHT22;7592;51.088;13.732;2022-09-12T18:26:08;17.70;99.90
14993;DHT22;7592;51.088;13.732;2022-09-12T18:31:02;17.70;99.90
14993;DHT22;7592;51.088;13.732;2022-09-12T18:35:55;17.60;99.90
14993;DHT22;7592;51.088;13.732;2022-09-12T18:41:04;17.50;99.90
14993;DHT22;7592;51.088;13.732;2022-09-12T18:46:15;17.20;99.90
14993;DHT22;7592;51.088;13.732;2022-09-12T18:51:20;17.00;99.90
14993;DHT22;7592;51.088;13.732;2022-09-12T20:57:48;14.20;99.90
14993;DHT22;7592;51.088;13.732;2022-09-12T21:02:45;14.10;99.90
14993;DHT22;7592;51.088;13.732;2022-09-12T21:07:52;14.10;99.90
14993;DHT22;7592;51.088;13.732;2022-09-12T21:12:44;14.00;99.90
14993;DHT22;7592;51.088;13.732;2022-09-12T21:17:37;13.90;99.90
14993;DHT22;7592;51.088;13.732;2022-09-12T21:22:30;13.90;99.90
14993;DHT22;7592;51.088;13.732;2022-09-12T21:27:23;13.80;99.90
14993;DHT22;7592;51.088;13.732;2022-09-12T21:32:17;13.80;99.90
14993;DHT22;7592;51.088;13.732;2022-09-12T21:37:09;13.70;99.90
14993;DHT22;7592;51.088;13.732;2022-09-12T21:42:02;13.70;99.90
14993;DHT22;7592;51.088;13.732;2022-09-12T21:46:54;13.70;99.90
14993;DHT22;7592;51.088;13.732;2022-09-12T21:51:50;13.70;99.90
14993;DHT22;7592;51.088;13.732;2022-09-12T21:56:56;13.70;99.90
14993;DHT22;7592;51.088;13.732;2022-09-12T22:01:52;13.60;99.90
14993;DHT22;7592;51.088;13.732;2022-09-12T22:06:45;13.60;99.90
14993;DHT22;7592;51.088;13.732;2022-09-12T22:11:38;13.50;99.90
14993;DHT22;7592;51.088;13.732;2022-09-12T22:16:32;13.50;99.90
14993;DHT22;7592;51.088;13.732;2022-09-12T22:21:25;13.40;99.90
14993;DHT22;7592;51.088;13.732;2022-09-12T22:26:18;13.40;99.90
14993;DHT22;7592;51.088;13.732;2022-09-12T22:31:12;13.40;99.90
14993;DHT22;7592;51.088;13.732;2022-09-12T22:36:06;13.30;99.90
14993;DHT22;7592;51.088;13.732;2022-09-12T22:41:02;13.30;99.90
14993;DHT22;7592;51.088;13.732;2022-09-12T22:45:56;13.20;99.90
14993;DHT22;7592;51.088;13.732;2022-09-12T22:50:52;13.20;99.90
14993;DHT22;7592;51.088;13.732;2022-09-12T22:55:47;13.10;99.90
14993;DHT22;7592;51.088;13.732;2022-09-12T23:00:47;13.10;99.90
14993;DHT22;7592;51.088;13.732;2022-09-12T23:05:42;13.10;99.90
14993;DHT22;7592;51.088;13.732;2022-09-12T23:10:36;13.10;99.90
14993;DHT22;7592;51.088;13.732;2022-09-12T23:15:30;13.10;99.90
14993;DHT22;7592;51.088;13.732;2022-09-12T23:20:23;13.10;99.90
14993;DHT22;7592;51.088;13.732;2022-09-12T23:25:16;13.00;99.90
14993;DHT22;7592;51.088;13.732;2022-09-12T23:30:09;12.90;99.90
14993;DHT22;7592;51.088;13.732;2022-09-12T23:35:02;12.90;99.90
14993;DHT22;7592;51.088;13.732;2022-09-12T23:39:55;12.90;99.90
14993;DHT22;7592;51.088;13.732;2022-09-12T23:44:49;12.80;99.90
14993;DHT22;7592;51.088;13.732;2022-09-12T23:49:41;12.80;99.90
14993;DHT22;7592;51.088;13.732;2022-09-12T23:54:37;12.70;99.90
14993;DHT22;7592;51.088;13.732;2022-09-12T23:59:30;12.70;99.90
